sensor_id;sensor_type;location;lat;lon;timestamp;temperature;humidity
1680;DHT22;838;51.794;12.258;2023-08-07T00:01:30;17.60;59.40
1680;DHT22;838;51.794;12.258;2023-08-07T00:03:58;17.60;60.20
1680;DHT22;838;51.794;12.258;2023-08-07T00:06:24;17.50;58.00
1680;DHT22;838;51.794;12.258;2023-08-07T00:08:50;17.50;56.80
1680;DHT22;838;51.794;12.258;2023-08-07T00:11:19;17.30;57.80
1680;DHT22;838;51.794;12.258;2023-08-07T00:13:45;17.20;59.80
1680;DHT22;838;51.794;12.258;2023-08-07T00:16:10;17.00;65.10
1680;DHT22;838;51.794;12.258;2023-08-07T00:18:36;16.70;69.60
1680;DHT22;838;51.794;12.258;2023-08-07T00:21:02;16.40;72.70
1680;DHT22;838;51.794;12.258;2023-08-07T00:23:28;16.20;77.50
1680;DHT22;838;51.794;12.258;2023-08-07T00:25:53;16.00;81.90
1680;DHT22;838;51.794;12.258;2023-08-07T00:28:19;15.90;82.80
1680;DHT22;838;51.794;12.258;2023-08-07T00:30:54;15.70;85.70
1680;DHT22;838;51.794;12.258;2023-08-07T00:33:19;15.50;87.30
1680;DHT22;838;51.794;12.258;2023-08-07T00:35:45;15.50;90.30
1680;DHT22;838;51.794;12.258;2023-08-07T00:38:11;15.40;91.20
1680;DHT22;838;51.794;12.258;2023-08-07T00:40:38;15.40;92.00
1680;DHT22;838;51.794;12.258;2023-08-07T00:43:04;15.40;92.40
1680;DHT22;838;51.794;12.258;2023-08-07T00:45:34;15.40;92.60
1680;DHT22;838;51.794;12.258;2023-08-07T00:48:00;15.40;92.90
1680;DHT22;838;51.794;12.258;2023-08-07T00:50:26;15.40;93.00
1680;DHT22;838;51.794;12.258;2023-08-07T00:52:52;15.50;93.10
1680;DHT22;838;51.794;12.258;2023-08-07T00:55:18;15.40;92.40
1680;DHT22;838;51.794;12.258;2023-08-07T00:57:44;15.40;92.80
1680;DHT22;838;51.794;12.258;2023-08-07T01:00:10;15.60;92.80
1680;DHT22;838;51.794;12.258;2023-08-07T01:02:37;15.80;92.60
1680;DHT22;838;51.794;12.258;2023-08-07T01:05:03;15.90;91.80
1680;DHT22;838;51.794;12.258;2023-08-07T01:07:29;16.00;91.80
1680;DHT22;838;51.794;12.258;2023-08-07T01:09:54;16.20;90.80
1680;DHT22;838;51.794;12.258;2023-08-07T01:12:30;16.40;90.30
1680;DHT22;838;51.794;12.258;2023-08-07T01:15:16;16.50;88.40
1680;DHT22;838;51.794;12.258;2023-08-07T01:17:42;16.60;87.90
1680;DHT22;838;51.794;12.258;2023-08-07T01:20:09;16.70;86.50
1680;DHT22;838;51.794;12.258;2023-08-07T01:22:35;16.70;85.50
1680;DHT22;838;51.794;12.258;2023-08-07T01:25:01;16.70;85.50
1680;DHT22;838;51.794;12.258;2023-08-07T01:27:37;16.80;85.40
1680;DHT22;838;51.794;12.258;2023-08-07T01:32:49;16.80;83.60
1680;DHT22;838;51.794;12.258;2023-08-07T01:35:19;16.70;83.90
1680;DHT22;838;51.794;12.258;2023-08-07T01:37:47;16.80;84.70
1680;DHT22;838;51.794;12.258;2023-08-07T01:40:14;16.80;82.30
1680;DHT22;838;51.794;12.258;2023-08-07T01:42:41;16.80;83.70
1680;DHT22;838;51.794;12.258;2023-08-07T01:45:08;16.80;82.60
1680;DHT22;838;51.794;12.258;2023-08-07T01:47:34;16.80;82.10
1680;DHT22;838;51.794;12.258;2023-08-07T01:50:00;16.60;82.90
1680;DHT22;838;51.794;12.258;2023-08-07T01:52:26;16.60;83.30
1680;DHT22;838;51.794;12.258;2023-08-07T01:54:51;16.60;84.50
1680;DHT22;838;51.794;12.258;2023-08-07T01:57:17;16.80;83.50
1680;DHT22;838;51.794;12.258;2023-08-07T01:59:43;16.70;83.40
1680;DHT22;838;51.794;12.258;2023-08-07T02:02:10;16.80;84.30
1680;DHT22;838;51.794;12.258;2023-08-07T02:04:35;16.70;84.20
1680;DHT22;838;51.794;12.258;2023-08-07T02:07:01;16.50;86.60
1680;DHT22;838;51.794;12.258;2023-08-07T02:09:27;16.50;87.00
1680;DHT22;838;51.794;12.258;2023-08-07T02:11:53;16.40;88.90
1680;DHT22;838;51.794;12.258;2023-08-07T02:14:18;16.30;89.90
1680;DHT22;838;51.794;12.258;2023-08-07T02:16:44;16.20;90.40
1680;DHT22;838;51.794;12.258;2023-08-07T02:19:10;16.10;90.80
1680;DHT22;838;51.794;12.258;2023-08-07T02:21:35;16.10;91.40
1680;DHT22;838;51.794;12.258;2023-08-07T02:24:01;16.20;91.50
1680;DHT22;838;51.794;12.258;2023-08-07T02:26:27;16.20;91.00
1680;DHT22;838;51.794;12.258;2023-08-07T02:28:52;16.10;91.30
1680;DHT22;838;51.794;12.258;2023-08-07T02:31:18;16.10;91.40
1680;DHT22;838;51.794;12.258;2023-08-07T02:33:44;16.10;91.50
1680;DHT22;838;51.794;12.258;2023-08-07T02:36:09;16.20;91.70
1680;DHT22;838;51.794;12.258;2023-08-07T02:38:35;16.20;91.30
1680;DHT22;838;51.794;12.258;2023-08-07T02:41:01;16.20;91.00
1680;DHT22;838;51.794;12.258;2023-08-07T02:43:26;16.20;91.30
1680;DHT22;838;51.794;12.258;2023-08-07T02:45:54;16.20;91.30
1680;DHT22;838;51.794;12.258;2023-08-07T02:48:19;16.20;91.20
1680;DHT22;838;51.794;12.258;2023-08-07T02:50:45;16.30;90.90
1680;DHT22;838;51.794;12.258;2023-08-07T02:53:11;16.20;91.00
1680;DHT22;838;51.794;12.258;2023-08-07T02:55:37;16.20;91.10
1680;DHT22;838;51.794;12.258;2023-08-07T02:58:02;16.10;91.40
1680;DHT22;838;51.794;12.258;2023-08-07T03:00:28;16.20;91.40
1680;DHT22;838;51.794;12.258;2023-08-07T03:02:54;16.30;91.40
1680;DHT22;838;51.794;12.258;2023-08-07T03:05:19;16.30;91.10
1680;DHT22;838;51.794;12.258;2023-08-07T03:07:45;16.20;91.20
1680;DHT22;838;51.794;12.258;2023-08-07T03:10:11;16.10;91.30
1680;DHT22;838;51.794;12.258;2023-08-07T03:12:37;16.10;91.40
1680;DHT22;838;51.794;12.258;2023-08-07T03:15:05;16.10;91.60
1680;DHT22;838;51.794;12.258;2023-08-07T03:17:30;16.10;91.50
1680;DHT22;838;51.794;12.258;2023-08-07T03:19:56;16.00;91.60
1680;DHT22;838;51.794;12.258;2023-08-07T03:22:22;16.00;91.70
1680;DHT22;838;51.794;12.258;2023-08-07T03:24:48;15.90;91.80
1680;DHT22;838;51.794;12.258;2023-08-07T03:27:14;15.90;91.90
1680;DHT22;838;51.794;12.258;2023-08-07T03:29:40;15.90;92.10
1680;DHT22;838;51.794;12.258;2023-08-07T03:32:06;15.90;92.00
1680;DHT22;838;51.794;12.258;2023-08-07T03:34:32;15.90;92.10
1680;DHT22;838;51.794;12.258;2023-08-07T03:36:57;15.90;92.20
1680;DHT22;838;51.794;12.258;2023-08-07T03:39:25;15.90;91.90
1680;DHT22;838;51.794;12.258;2023-08-07T03:41:51;15.90;92.00
1680;DHT22;838;51.794;12.258;2023-08-07T03:44:16;15.90;91.90
1680;DHT22;838;51.794;12.258;2023-08-07T03:46:42;15.90;91.80
1680;DHT22;838;51.794;12.258;2023-08-07T03:49:08;15.90;91.80
1680;DHT22;838;51.794;12.258;2023-08-07T03:51:33;16.00;91.70
1680;DHT22;838;51.794;12.258;2023-08-07T03:53:59;15.90;91.70
1680;DHT22;838;51.794;12.258;2023-08-07T03:56:25;15.90;91.90
1680;DHT22;838;51.794;12.258;2023-08-07T03:58:51;15.80;92.00
1680;DHT22;838;51.794;12.258;2023-08-07T04:01:17;15.90;91.90
1680;DHT22;838;51.794;12.258;2023-08-07T04:03:42;15.90;92.10
1680;DHT22;838;51.794;12.258;2023-08-07T04:06:08;15.90;91.20
1680;DHT22;838;51.794;12.258;2023-08-07T04:08:36;15.90;90.90
1680;DHT22;838;51.794;12.258;2023-08-07T04:11:05;15.80;90.90
1680;DHT22;838;51.794;12.258;2023-08-07T04:13:31;15.80;90.70
1680;DHT22;838;51.794;12.258;2023-08-07T04:15:57;15.70;90.80
1680;DHT22;838;51.794;12.258;2023-08-07T04:18:23;15.70;90.80
1680;DHT22;838;51.794;12.258;2023-08-07T04:20:53;15.70;90.90
1680;DHT22;838;51.794;12.258;2023-08-07T04:23:19;15.70;90.80
1680;DHT22;838;51.794;12.258;2023-08-07T04:25:45;15.80;90.70
1680;DHT22;838;51.794;12.258;2023-08-07T04:28:12;15.80;90.70
1680;DHT22;838;51.794;12.258;2023-08-07T04:30:38;15.80;90.60
1680;DHT22;838;51.794;12.258;2023-08-07T04:33:04;15.80;90.40
1680;DHT22;838;51.794;12.258;2023-08-07T04:35:30;15.90;90.40
1680;DHT22;838;51.794;12.258;2023-08-07T04:37:56;15.90;90.10
1680;DHT22;838;51.794;12.258;2023-08-07T04:40:22;15.90;90.20
1680;DHT22;838;51.794;12.258;2023-08-07T04:42:49;15.90;90.30
1680;DHT22;838;51.794;12.258;2023-08-07T04:45:15;15.90;90.40
1680;DHT22;838;51.794;12.258;2023-08-07T04:47:40;16.00;90.40
1680;DHT22;838;51.794;12.258;2023-08-07T04:50:07;16.00;90.20
1680;DHT22;838;51.794;12.258;2023-08-07T04:52:34;16.00;90.50
1680;DHT22;838;51.794;12.258;2023-08-07T04:55:00;16.10;90.20
1680;DHT22;838;51.794;12.258;2023-08-07T04:57:26;16.10;90.20
1680;DHT22;838;51.794;12.258;2023-08-07T04:59:52;16.20;90.00
1680;DHT22;838;51.794;12.258;2023-08-07T05:02:18;16.30;89.10
1680;DHT22;838;51.794;12.258;2023-08-07T05:04:44;16.30;89.40
1680;DHT22;838;51.794;12.258;2023-08-07T05:07:10;16.30;89.90
1680;DHT22;838;51.794;12.258;2023-08-07T05:09:36;16.40;89.20
1680;DHT22;838;51.794;12.258;2023-08-07T05:12:02;16.40;89.50
1680;DHT22;838;51.794;12.258;2023-08-07T05:14:29;16.40;90.00
1680;DHT22;838;51.794;12.258;2023-08-07T05:16:55;16.50;89.70
1680;DHT22;838;51.794;12.258;2023-08-07T05:19:20;16.60;89.20
1680;DHT22;838;51.794;12.258;2023-08-07T05:21:47;16.60;88.10
1680;DHT22;838;51.794;12.258;2023-08-07T05:24:15;16.60;87.80
1680;DHT22;838;51.794;12.258;2023-08-07T05:26:41;16.60;88.40
1680;DHT22;838;51.794;12.258;2023-08-07T05:29:07;16.60;88.50
1680;DHT22;838;51.794;12.258;2023-08-07T05:31:33;16.70;88.50
1680;DHT22;838;51.794;12.258;2023-08-07T05:33:59;16.90;88.20
1680;DHT22;838;51.794;12.258;2023-08-07T05:36:25;16.90;85.70
1680;DHT22;838;51.794;12.258;2023-08-07T05:38:51;17.00;85.80
1680;DHT22;838;51.794;12.258;2023-08-07T05:41:17;16.90;84.80
1680;DHT22;838;51.794;12.258;2023-08-07T05:43:43;16.80;84.00
1680;DHT22;838;51.794;12.258;2023-08-07T05:46:09;16.80;84.40
1680;DHT22;838;51.794;12.258;2023-08-07T05:48:35;16.80;83.80
1680;DHT22;838;51.794;12.258;2023-08-07T05:51:01;16.70;84.80
1680;DHT22;838;51.794;12.258;2023-08-07T05:53:26;16.70;85.10
1680;DHT22;838;51.794;12.258;2023-08-07T05:55:53;16.80;85.40
1680;DHT22;838;51.794;12.258;2023-08-07T05:58:19;16.80;83.30
1680;DHT22;838;51.794;12.258;2023-08-07T06:00:44;16.70;84.20
1680;DHT22;838;51.794;12.258;2023-08-07T06:03:10;16.80;83.20
1680;DHT22;838;51.794;12.258;2023-08-07T06:05:36;16.90;82.50
1680;DHT22;838;51.794;12.258;2023-08-07T06:08:01;17.00;81.90
1680;DHT22;838;51.794;12.258;2023-08-07T06:10:27;17.10;80.50
1680;DHT22;838;51.794;12.258;2023-08-07T06:12:53;17.10;79.10
1680;DHT22;838;51.794;12.258;2023-08-07T06:15:19;17.20;78.60
1680;DHT22;838;51.794;12.258;2023-08-07T06:17:45;17.40;77.00
1680;DHT22;838;51.794;12.258;2023-08-07T06:20:11;17.30;74.70
1680;DHT22;838;51.794;12.258;2023-08-07T06:22:40;17.50;75.00
1680;DHT22;838;51.794;12.258;2023-08-07T06:25:06;17.50;71.30
1680;DHT22;838;51.794;12.258;2023-08-07T06:27:32;17.40;72.10
1680;DHT22;838;51.794;12.258;2023-08-07T06:29:58;17.40;72.90
1680;DHT22;838;51.794;12.258;2023-08-07T06:32:25;17.30;72.20
1680;DHT22;838;51.794;12.258;2023-08-07T06:34:52;17.40;73.20
1680;DHT22;838;51.794;12.258;2023-08-07T06:37:18;17.40;71.60
1680;DHT22;838;51.794;12.258;2023-08-07T06:39:44;17.50;72.40
1680;DHT22;838;51.794;12.258;2023-08-07T06:42:11;17.60;69.60
1680;DHT22;838;51.794;12.258;2023-08-07T06:44:36;17.70;69.00
1680;DHT22;838;51.794;12.258;2023-08-07T06:47:02;17.90;68.60
1680;DHT22;838;51.794;12.258;2023-08-07T06:49:28;18.00;63.40
1680;DHT22;838;51.794;12.258;2023-08-07T06:51:54;18.10;64.10
1680;DHT22;838;51.794;12.258;2023-08-07T06:54:19;17.90;61.10
1680;DHT22;838;51.794;12.258;2023-08-07T06:56:45;17.90;62.10
1680;DHT22;838;51.794;12.258;2023-08-07T06:59:11;17.90;63.80
1680;DHT22;838;51.794;12.258;2023-08-07T07:01:37;17.90;63.90
1680;DHT22;838;51.794;12.258;2023-08-07T07:04:03;18.20;62.10
1680;DHT22;838;51.794;12.258;2023-08-07T07:06:29;18.40;59.40
1680;DHT22;838;51.794;12.258;2023-08-07T07:08:55;18.30;57.80
1680;DHT22;838;51.794;12.258;2023-08-07T07:11:21;18.30;59.50
1680;DHT22;838;51.794;12.258;2023-08-07T07:13:55;18.60;57.70
1680;DHT22;838;51.794;12.258;2023-08-07T07:16:27;18.70;53.80
1680;DHT22;838;51.794;12.258;2023-08-07T07:18:53;18.80;55.20
1680;DHT22;838;51.794;12.258;2023-08-07T07:21:21;18.80;50.80
1680;DHT22;838;51.794;12.258;2023-08-07T07:23:47;18.80;52.90
1680;DHT22;838;51.794;12.258;2023-08-07T07:26:13;18.80;54.20
1680;DHT22;838;51.794;12.258;2023-08-07T07:28:41;18.50;52.30
1680;DHT22;838;51.794;12.258;2023-08-07T07:31:07;18.40;53.80
1680;DHT22;838;51.794;12.258;2023-08-07T07:33:37;18.40;54.80
1680;DHT22;838;51.794;12.258;2023-08-07T07:36:05;18.30;54.90
1680;DHT22;838;51.794;12.258;2023-08-07T07:38:34;18.20;53.60
1680;DHT22;838;51.794;12.258;2023-08-07T07:41:00;18.10;54.60
1680;DHT22;838;51.794;12.258;2023-08-07T07:43:25;18.10;55.30
1680;DHT22;838;51.794;12.258;2023-08-07T07:45:51;18.20;57.10
1680;DHT22;838;51.794;12.258;2023-08-07T07:48:17;18.10;57.50
1680;DHT22;838;51.794;12.258;2023-08-07T07:50:42;18.00;62.30
1680;DHT22;838;51.794;12.258;2023-08-07T07:53:08;18.00;65.70
1680;DHT22;838;51.794;12.258;2023-08-07T07:55:37;18.10;65.10
1680;DHT22;838;51.794;12.258;2023-08-07T07:58:03;18.10;61.20
1680;DHT22;838;51.794;12.258;2023-08-07T08:00:29;18.20;63.20
1680;DHT22;838;51.794;12.258;2023-08-07T08:02:55;18.40;62.00
1680;DHT22;838;51.794;12.258;2023-08-07T08:05:21;18.70;58.30
1680;DHT22;838;51.794;12.258;2023-08-07T08:07:47;18.90;51.70
1680;DHT22;838;51.794;12.258;2023-08-07T08:10:12;19.20;51.60
1680;DHT22;838;51.794;12.258;2023-08-07T08:12:38;19.60;45.80
1680;DHT22;838;51.794;12.258;2023-08-07T08:15:05;19.60;45.00
1680;DHT22;838;51.794;12.258;2023-08-07T08:17:31;19.50;45.70
1680;DHT22;838;51.794;12.258;2023-08-07T08:20:04;19.20;46.10
1680;DHT22;838;51.794;12.258;2023-08-07T08:22:29;18.90;44.90
1680;DHT22;838;51.794;12.258;2023-08-07T08:24:55;18.50;48.10
1680;DHT22;838;51.794;12.258;2023-08-07T08:27:21;18.40;50.10
1680;DHT22;838;51.794;12.258;2023-08-07T08:29:47;18.20;53.50
1680;DHT22;838;51.794;12.258;2023-08-07T08:32:13;18.30;55.50
1680;DHT22;838;51.794;12.258;2023-08-07T08:34:39;18.20;55.10
1680;DHT22;838;51.794;12.258;2023-08-07T08:37:05;18.20;56.40
1680;DHT22;838;51.794;12.258;2023-08-07T08:39:31;18.40;55.60
1680;DHT22;838;51.794;12.258;2023-08-07T08:41:59;18.50;53.50
1680;DHT22;838;51.794;12.258;2023-08-07T08:44:26;18.40;52.80
1680;DHT22;838;51.794;12.258;2023-08-07T08:46:54;18.30;54.80
1680;DHT22;838;51.794;12.258;2023-08-07T08:49:28;18.40;53.90
1680;DHT22;838;51.794;12.258;2023-08-07T08:51:56;18.30;55.50
1680;DHT22;838;51.794;12.258;2023-08-07T08:54:22;18.50;54.80
1680;DHT22;838;51.794;12.258;2023-08-07T08:56:48;18.50;54.30
1680;DHT22;838;51.794;12.258;2023-08-07T08:59:15;18.80;54.90
1680;DHT22;838;51.794;12.258;2023-08-07T09:01:46;19.10;50.90
1680;DHT22;838;51.794;12.258;2023-08-07T09:04:15;19.30;46.90
1680;DHT22;838;51.794;12.258;2023-08-07T09:06:41;19.30;39.00
1680;DHT22;838;51.794;12.258;2023-08-07T09:09:08;19.10;40.10
1680;DHT22;838;51.794;12.258;2023-08-07T09:11:36;19.10;41.10
1680;DHT22;838;51.794;12.258;2023-08-07T09:14:06;19.20;38.00
1680;DHT22;838;51.794;12.258;2023-08-07T09:16:32;19.30;37.50
1680;DHT22;838;51.794;12.258;2023-08-07T09:19:08;19.20;36.00
1680;DHT22;838;51.794;12.258;2023-08-07T09:21:34;19.10;37.60
1680;DHT22;838;51.794;12.258;2023-08-07T09:24:00;18.90;36.90
1680;DHT22;838;51.794;12.258;2023-08-07T09:26:29;18.90;38.20
1680;DHT22;838;51.794;12.258;2023-08-07T09:28:58;19.10;37.40
1680;DHT22;838;51.794;12.258;2023-08-07T09:31:25;19.30;34.20
1680;DHT22;838;51.794;12.258;2023-08-07T09:34:01;19.30;33.20
1680;DHT22;838;51.794;12.258;2023-08-07T09:36:32;19.30;37.70
1680;DHT22;838;51.794;12.258;2023-08-07T09:39:01;19.50;36.70
1680;DHT22;838;51.794;12.258;2023-08-07T09:41:32;20.10;34.40
1680;DHT22;838;51.794;12.258;2023-08-07T09:44:07;20.90;23.30
1680;DHT22;838;51.794;12.258;2023-08-07T09:46:41;21.10;23.00
1680;DHT22;838;51.794;12.258;2023-08-07T09:49:08;21.00;20.90
1680;DHT22;838;51.794;12.258;2023-08-07T09:51:47;20.80;22.30
1680;DHT22;838;51.794;12.258;2023-08-07T09:54:18;20.80;26.30
1680;DHT22;838;51.794;12.258;2023-08-07T09:56:44;21.60;16.50
1680;DHT22;838;51.794;12.258;2023-08-07T09:59:13;22.10;13.00
1680;DHT22;838;51.794;12.258;2023-08-07T10:01:41;22.20;13.80
1680;DHT22;838;51.794;12.258;2023-08-07T10:04:12;22.30;13.60
1680;DHT22;838;51.794;12.258;2023-08-07T10:06:51;21.70;13.40
1680;DHT22;838;51.794;12.258;2023-08-07T10:09:16;21.40;14.90
1680;DHT22;838;51.794;12.258;2023-08-07T10:11:42;21.40;16.20
1680;DHT22;838;51.794;12.258;2023-08-07T10:14:15;21.40;16.30
1680;DHT22;838;51.794;12.258;2023-08-07T10:16:41;21.60;14.60
1680;DHT22;838;51.794;12.258;2023-08-07T10:19:10;21.70;11.50
1680;DHT22;838;51.794;12.258;2023-08-07T10:21:39;21.30;14.60
1680;DHT22;838;51.794;12.258;2023-08-07T10:24:06;21.10;14.50
1680;DHT22;838;51.794;12.258;2023-08-07T10:26:34;20.90;12.30
1680;DHT22;838;51.794;12.258;2023-08-07T10:29:06;20.60;15.60
1680;DHT22;838;51.794;12.258;2023-08-07T10:31:36;20.50;17.40
1680;DHT22;838;51.794;12.258;2023-08-07T10:34:03;20.70;17.80
1680;DHT22;838;51.794;12.258;2023-08-07T10:36:33;20.90;14.10
1680;DHT22;838;51.794;12.258;2023-08-07T10:39:10;21.00;14.20
1680;DHT22;838;51.794;12.258;2023-08-07T10:41:46;21.10;10.00
1680;DHT22;838;51.794;12.258;2023-08-07T10:44:25;21.10;9.80
1680;DHT22;838;51.794;12.258;2023-08-07T10:46:55;21.20;9.60
1680;DHT22;838;51.794;12.258;2023-08-07T10:49:38;21.50;7.70
1680;DHT22;838;51.794;12.258;2023-08-07T10:52:07;21.80;1.00
1680;DHT22;838;51.794;12.258;2023-08-07T10:54:59;21.90;1.00
1680;DHT22;838;51.794;12.258;2023-08-07T10:57:31;22.10;1.00
1680;DHT22;838;51.794;12.258;2023-08-07T11:00:12;22.40;1.00
1680;DHT22;838;51.794;12.258;2023-08-07T11:02:47;22.60;1.00
1680;DHT22;838;51.794;12.258;2023-08-07T11:05:13;22.40;1.00
1680;DHT22;838;51.794;12.258;2023-08-07T11:07:42;22.20;1.00
1680;DHT22;838;51.794;12.258;2023-08-07T11:10:13;21.80;1.00
1680;DHT22;838;51.794;12.258;2023-08-07T11:12:41;21.60;1.00
1680;DHT22;838;51.794;12.258;2023-08-07T11:15:07;21.30;1.00
1680;DHT22;838;51.794;12.258;2023-08-07T11:17:37;21.50;1.00
1680;DHT22;838;51.794;12.258;2023-08-07T11:20:03;21.40;1.00
1680;DHT22;838;51.794;12.258;2023-08-07T11:22:30;21.10;2.80
1680;DHT22;838;51.794;12.258;2023-08-07T11:24:56;20.70;2.60
1680;DHT22;838;51.794;12.258;2023-08-07T11:27:25;20.20;8.20
1680;DHT22;838;51.794;12.258;2023-08-07T11:29:50;19.90;12.40
1680;DHT22;838;51.794;12.258;2023-08-07T11:32:21;19.70;15.70
1680;DHT22;838;51.794;12.258;2023-08-07T11:34:49;19.60;17.80
1680;DHT22;838;51.794;12.258;2023-08-07T11:37:16;19.00;26.20
1680;DHT22;838;51.794;12.258;2023-08-07T11:39:43;18.50;37.90
1680;DHT22;838;51.794;12.258;2023-08-07T11:42:09;18.00;53.10
1680;DHT22;838;51.794;12.258;2023-08-07T11:44:35;17.60;64.30
1680;DHT22;838;51.794;12.258;2023-08-07T11:47:01;17.50;71.20
1680;DHT22;838;51.794;12.258;2023-08-07T11:49:27;17.30;75.60
1680;DHT22;838;51.794;12.258;2023-08-07T11:51:54;17.30;77.90
1680;DHT22;838;51.794;12.258;2023-08-07T11:54:21;17.30;79.60
1680;DHT22;838;51.794;12.258;2023-08-07T11:56:47;17.30;78.50
1680;DHT22;838;51.794;12.258;2023-08-07T11:59:16;17.50;80.10
1680;DHT22;838;51.794;12.258;2023-08-07T12:01:43;17.80;79.10
1680;DHT22;838;51.794;12.258;2023-08-07T12:04:10;18.10;75.40
1680;DHT22;838;51.794;12.258;2023-08-07T12:06:36;18.30;72.70
1680;DHT22;838;51.794;12.258;2023-08-07T12:09:14;18.50;73.70
1680;DHT22;838;51.794;12.258;2023-08-07T12:11:40;18.80;67.90
1680;DHT22;838;51.794;12.258;2023-08-07T12:14:06;18.90;54.00
1680;DHT22;838;51.794;12.258;2023-08-07T12:16:35;19.10;46.60
1680;DHT22;838;51.794;12.258;2023-08-07T12:19:01;19.40;43.50
1680;DHT22;838;51.794;12.258;2023-08-07T12:21:30;19.60;38.80
1680;DHT22;838;51.794;12.258;2023-08-07T12:23:59;19.70;37.10
1680;DHT22;838;51.794;12.258;2023-08-07T12:26:25;19.60;34.00
1680;DHT22;838;51.794;12.258;2023-08-07T12:28:51;19.50;29.50
1680;DHT22;838;51.794;12.258;2023-08-07T12:31:18;19.30;31.20
1680;DHT22;838;51.794;12.258;2023-08-07T12:33:44;19.40;28.20
1680;DHT22;838;51.794;12.258;2023-08-07T12:36:10;19.50;24.70
1680;DHT22;838;51.794;12.258;2023-08-07T12:38:36;19.60;24.20
1680;DHT22;838;51.794;12.258;2023-08-07T12:41:02;19.70;23.50
1680;DHT22;838;51.794;12.258;2023-08-07T12:43:28;19.60;23.90
1680;DHT22;838;51.794;12.258;2023-08-07T12:45:58;19.60;22.10
1680;DHT22;838;51.794;12.258;2023-08-07T12:48:24;19.60;22.30
1680;DHT22;838;51.794;12.258;2023-08-07T12:50:53;19.60;22.30
1680;DHT22;838;51.794;12.258;2023-08-07T12:53:18;19.70;20.70
1680;DHT22;838;51.794;12.258;2023-08-07T12:55:53;19.70;21.50
1680;DHT22;838;51.794;12.258;2023-08-07T12:58:22;19.80;22.20
1680;DHT22;838;51.794;12.258;2023-08-07T13:00:51;19.80;23.10
1680;DHT22;838;51.794;12.258;2023-08-07T13:03:17;20.10;17.30
1680;DHT22;838;51.794;12.258;2023-08-07T13:05:42;20.40;12.50
1680;DHT22;838;51.794;12.258;2023-08-07T13:08:08;20.50;11.90
1680;DHT22;838;51.794;12.258;2023-08-07T13:10:34;20.50;12.40
1680;DHT22;838;51.794;12.258;2023-08-07T13:13:00;20.30;13.60
1680;DHT22;838;51.794;12.258;2023-08-07T13:15:27;20.00;18.10
1680;DHT22;838;51.794;12.258;2023-08-07T13:17:53;19.60;19.80
1680;DHT22;838;51.794;12.258;2023-08-07T13:20:22;19.60;30.50
1680;DHT22;838;51.794;12.258;2023-08-07T13:22:48;19.10;49.00
1680;DHT22;838;51.794;12.258;2023-08-07T13:25:13;18.60;58.60
1680;DHT22;838;51.794;12.258;2023-08-07T13:27:40;18.30;67.10
1680;DHT22;838;51.794;12.258;2023-08-07T13:30:07;18.40;67.10
1680;DHT22;838;51.794;12.258;2023-08-07T13:32:33;18.50;68.70
1680;DHT22;838;51.794;12.258;2023-08-07T13:35:01;18.50;61.50
1680;DHT22;838;51.794;12.258;2023-08-07T13:37:28;18.60;57.90
1680;DHT22;838;51.794;12.258;2023-08-07T13:39:54;18.60;51.60
1680;DHT22;838;51.794;12.258;2023-08-07T13:42:23;18.60;54.60
1680;DHT22;838;51.794;12.258;2023-08-07T13:44:50;18.60;53.40
1680;DHT22;838;51.794;12.258;2023-08-07T13:47:15;18.40;47.50
1680;DHT22;838;51.794;12.258;2023-08-07T13:49:43;18.20;42.80
1680;DHT22;838;51.794;12.258;2023-08-07T13:52:09;18.20;46.60
1680;DHT22;838;51.794;12.258;2023-08-07T13:54:34;18.40;38.70
1680;DHT22;838;51.794;12.258;2023-08-07T13:57:00;18.70;40.60
1680;DHT22;838;51.794;12.258;2023-08-07T13:59:26;18.90;37.50
1680;DHT22;838;51.794;12.258;2023-08-07T14:01:52;19.10;34.70
1680;DHT22;838;51.794;12.258;2023-08-07T14:04:22;19.30;35.30
1680;DHT22;838;51.794;12.258;2023-08-07T14:06:48;19.70;26.60
1680;DHT22;838;51.794;12.258;2023-08-07T14:09:13;19.40;26.40
1680;DHT22;838;51.794;12.258;2023-08-07T14:11:39;19.30;21.00
1680;DHT22;838;51.794;12.258;2023-08-07T14:14:05;19.30;18.30
1680;DHT22;838;51.794;12.258;2023-08-07T14:16:31;19.20;15.10
1680;DHT22;838;51.794;12.258;2023-08-07T14:18:57;19.10;12.20
1680;DHT22;838;51.794;12.258;2023-08-07T14:21:23;19.10;10.20
1680;DHT22;838;51.794;12.258;2023-08-07T14:23:48;19.00;10.50
1680;DHT22;838;51.794;12.258;2023-08-07T14:26:15;18.90;10.60
1680;DHT22;838;51.794;12.258;2023-08-07T14:28:41;19.00;12.80
1680;DHT22;838;51.794;12.258;2023-08-07T14:31:08;18.90;14.20
1680;DHT22;838;51.794;12.258;2023-08-07T14:33:34;18.90;14.40
1680;DHT22;838;51.794;12.258;2023-08-07T14:36:00;18.90;14.20
1680;DHT22;838;51.794;12.258;2023-08-07T14:38:26;19.00;15.60
1680;DHT22;838;51.794;12.258;2023-08-07T14:40:52;18.90;15.70
1680;DHT22;838;51.794;12.258;2023-08-07T14:43:17;19.00;15.90
1680;DHT22;838;51.794;12.258;2023-08-07T14:45:43;19.20;15.70
1680;DHT22;838;51.794;12.258;2023-08-07T14:48:09;19.30;14.90
1680;DHT22;838;51.794;12.258;2023-08-07T14:50:35;19.50;15.90
1680;DHT22;838;51.794;12.258;2023-08-07T14:53:04;19.60;15.20
1680;DHT22;838;51.794;12.258;2023-08-07T14:55:30;19.70;11.80
1680;DHT22;838;51.794;12.258;2023-08-07T14:57:55;19.60;12.90
1680;DHT22;838;51.794;12.258;2023-08-07T15:00:26;19.20;16.00
1680;DHT22;838;51.794;12.258;2023-08-07T15:02:57;19.10;18.10
1680;DHT22;838;51.794;12.258;2023-08-07T15:05:23;19.00;19.30
1680;DHT22;838;51.794;12.258;2023-08-07T15:07:49;19.00;19.40
1680;DHT22;838;51.794;12.258;2023-08-07T15:10:15;19.00;17.70
1680;DHT22;838;51.794;12.258;2023-08-07T15:12:40;19.00;18.10
1680;DHT22;838;51.794;12.258;2023-08-07T15:15:06;18.90;16.60
1680;DHT22;838;51.794;12.258;2023-08-07T15:17:32;18.90;13.30
1680;DHT22;838;51.794;12.258;2023-08-07T15:19:58;18.80;1.00
1680;DHT22;838;51.794;12.258;2023-08-07T15:22:24;18.90;1.00
1680;DHT22;838;51.794;12.258;2023-08-07T15:24:50;19.00;1.00
1680;DHT22;838;51.794;12.258;2023-08-07T15:27:15;19.10;1.00
1680;DHT22;838;51.794;12.258;2023-08-07T15:29:44;19.20;1.00
1680;DHT22;838;51.794;12.258;2023-08-07T15:32:11;19.40;1.00
1680;DHT22;838;51.794;12.258;2023-08-07T15:34:39;19.30;1.00
1680;DHT22;838;51.794;12.258;2023-08-07T15:37:05;19.60;1.00
1680;DHT22;838;51.794;12.258;2023-08-07T15:39:31;19.80;1.00
1680;DHT22;838;51.794;12.258;2023-08-07T15:41:57;19.90;1.00
1680;DHT22;838;51.794;12.258;2023-08-07T15:44:22;19.70;1.00
1680;DHT22;838;51.794;12.258;2023-08-07T15:46:48;19.30;1.00
1680;DHT22;838;51.794;12.258;2023-08-07T15:49:14;19.10;1.00
1680;DHT22;838;51.794;12.258;2023-08-07T15:51:40;18.80;3.50
1680;DHT22;838;51.794;12.258;2023-08-07T15:54:05;18.80;6.20
1680;DHT22;838;51.794;12.258;2023-08-07T15:56:31;18.70;5.80
1680;DHT22;838;51.794;12.258;2023-08-07T15:58:57;18.60;5.60
1680;DHT22;838;51.794;12.258;2023-08-07T16:01:26;18.60;6.10
1680;DHT22;838;51.794;12.258;2023-08-07T16:03:52;18.70;6.10